createdAt,value
2018-06-10T00:01:06.867Z,9.63
2018-06-10T00:03:36.122Z,10.30
2018-06-10T00:06:05.885Z,8.87
2018-06-10T00:08:35.735Z,8.67
2018-06-10T00:11:05.098Z,8.60
2018-06-10T00:13:34.380Z,7.90
2018-06-10T00:16:03.802Z,8.63
2018-06-10T00:18:33.091Z,8.90
2018-06-10T00:21:02.412Z,9.60
2018-06-10T00:23:31.631Z,10.53
2018-06-10T00:26:00.999Z,9.37
2018-06-10T00:28:35.206Z,10.53
2018-06-10T00:31:04.527Z,10.53
2018-06-10T00:33:33.899Z,9.60
2018-06-10T00:36:03.236Z,9.83
2018-06-10T00:38:32.520Z,10.40
2018-06-10T00:41:01.935Z,11.80
2018-06-10T00:43:31.218Z,10.63
2018-06-10T00:46:00.742Z,10.10
2018-06-10T00:48:30.097Z,9.73
2018-06-10T00:50:59.344Z,10.20
2018-06-10T00:53:28.737Z,8.50
2018-06-10T00:55:58.037Z,9.00
2018-06-10T00:58:27.279Z,9.20
2018-06-10T01:00:56.555Z,11.60
2018-06-10T01:03:25.810Z,11.40
2018-06-10T01:05:55.144Z,11.60
2018-06-10T01:08:25.326Z,11.50
2018-06-10T01:10:54.660Z,11.43
2018-06-10T01:13:24.265Z,12.03
2018-06-10T01:15:53.584Z,11.50
2018-06-10T01:18:22.843Z,13.27
2018-06-10T01:20:52.063Z,10.40
2018-06-10T01:23:21.417Z,11.60
2018-06-10T01:25:50.697Z,10.70
2018-06-10T01:28:20.026Z,10.53
2018-06-10T01:30:49.290Z,11.13
2018-06-10T01:33:18.551Z,12.37
2018-06-10T01:35:47.755Z,10.00
2018-06-10T01:38:17.027Z,12.80
2018-06-10T01:40:46.351Z,11.67
2018-06-10T01:43:15.726Z,12.53
2018-06-10T01:45:44.990Z,11.83
2018-06-10T01:48:14.229Z,11.90
2018-06-10T01:50:43.457Z,10.77
2018-06-10T01:53:12.811Z,10.80
2018-06-10T01:55:42.103Z,10.10
2018-06-10T01:58:11.328Z,12.00
2018-06-10T02:00:40.582Z,12.20
2018-06-10T02:03:09.824Z,12.00
2018-06-10T02:05:39.207Z,10.80
2018-06-10T02:08:08.566Z,11.73
2018-06-10T02:10:37.982Z,10.93
2018-06-10T02:13:07.321Z,12.20
2018-06-10T02:15:36.777Z,14.10
2018-06-10T02:18:06.281Z,12.53
2018-06-10T02:20:35.582Z,15.50
2018-06-10T02:23:04.882Z,13.03
2018-06-10T02:25:34.259Z,14.00
2018-06-10T02:28:03.601Z,13.10
2018-06-10T02:30:32.966Z,15.90
2018-06-10T02:33:02.210Z,14.47
2018-06-10T02:35:31.475Z,15.97
2018-06-10T02:38:00.903Z,18.23
2018-06-10T02:40:30.202Z,18.20
2018-06-10T02:42:59.511Z,18.97
2018-06-10T02:45:28.793Z,22.23
2018-06-10T02:47:58.095Z,17.17
2018-06-10T02:50:27.369Z,17.97
2018-06-10T02:52:56.702Z,17.67
2018-06-10T02:55:26.099Z,17.27
2018-06-10T02:57:55.398Z,17.97
2018-06-10T03:00:24.671Z,17.10
2018-06-10T03:02:54.111Z,14.30
2018-06-10T03:05:23.371Z,15.83
2018-06-10T03:07:52.778Z,14.53
2018-06-10T03:10:22.105Z,15.20
2018-06-10T03:12:51.586Z,14.20
2018-06-10T03:15:21.027Z,13.50
2018-06-10T03:17:50.621Z,15.67
2018-06-10T03:20:20.639Z,14.80
2018-06-10T03:22:50.049Z,14.53
2018-06-10T03:25:19.438Z,15.27
2018-06-10T03:27:48.749Z,18.50
2018-06-10T03:30:18.123Z,16.80
2018-06-10T03:32:47.472Z,19.27
2018-06-10T03:35:16.757Z,21.47
2018-06-10T03:37:46.162Z,20.10
2018-06-10T03:40:15.550Z,19.63
2018-06-10T03:42:44.861Z,19.17
2018-06-10T03:45:14.122Z,20.17
2018-06-10T03:47:43.382Z,23.10
2018-06-10T03:50:12.663Z,23.53
2018-06-10T03:52:42.084Z,21.03
2018-06-10T03:55:11.334Z,18.67
2018-06-10T03:57:40.549Z,17.70
2018-06-10T04:00:10.013Z,18.53
2018-06-10T04:02:39.302Z,21.50
2018-06-10T04:05:08.614Z,18.77
2018-06-10T04:07:37.984Z,16.50
2018-06-10T04:10:07.317Z,16.70
2018-06-10T04:12:36.732Z,16.73
2018-06-10T04:15:06.118Z,21.03
2018-06-10T04:17:35.386Z,23.47
2018-06-10T04:20:04.732Z,23.37
2018-06-10T04:22:34.048Z,22.57
2018-06-10T04:25:03.308Z,23.93
2018-06-10T04:27:33.091Z,20.87
2018-06-10T04:30:02.486Z,20.40
2018-06-10T04:32:31.801Z,24.03
2018-06-10T04:35:00.983Z,19.17
2018-06-10T04:37:30.286Z,19.03
2018-06-10T04:39:59.573Z,17.57
2018-06-10T04:42:28.914Z,16.60
2018-06-10T04:44:58.192Z,21.60
2018-06-10T04:47:29.495Z,17.73
2018-06-10T04:49:59.248Z,16.60
2018-06-10T04:52:28.569Z,17.37
2018-06-10T04:54:57.843Z,17.43
2018-06-10T04:57:27.280Z,18.93
2018-06-10T04:59:56.553Z,18.30
2018-06-10T05:02:25.861Z,21.07
2018-06-10T05:04:55.118Z,17.57
2018-06-10T05:07:24.454Z,18.73
2018-06-10T05:09:53.627Z,19.80
2018-06-10T05:12:23.077Z,19.13
2018-06-10T05:14:52.351Z,19.20
2018-06-10T05:17:21.760Z,20.60
2018-06-10T05:19:51.045Z,18.80
2018-06-10T05:22:20.377Z,18.10
2018-06-10T05:24:49.661Z,18.07
2018-06-10T05:27:19.090Z,20.60
2018-06-10T05:29:48.365Z,20.07
2018-06-10T05:32:17.885Z,19.03
2018-06-10T05:34:47.152Z,18.27
2018-06-10T05:37:16.529Z,17.90
2018-06-10T05:39:45.749Z,18.30
2018-06-10T05:42:15.085Z,22.17
2018-06-10T05:44:44.342Z,23.23
2018-06-10T05:47:13.684Z,16.83
2018-06-10T05:49:42.992Z,20.83
2018-06-10T05:52:12.346Z,16.10
2018-06-10T05:54:41.595Z,15.87
2018-06-10T05:57:10.962Z,16.40
2018-06-10T05:59:40.394Z,16.67
2018-06-10T06:02:09.767Z,16.53
2018-06-10T06:04:39.114Z,16.40
2018-06-10T06:07:08.492Z,18.63
2018-06-10T06:09:37.887Z,16.30
2018-06-10T06:12:07.162Z,16.27
2018-06-10T06:14:36.399Z,15.73
2018-06-10T06:17:05.794Z,16.23
2018-06-10T06:19:35.133Z,15.30
2018-06-10T06:22:04.395Z,14.03
2018-06-10T06:24:33.713Z,14.00
2018-06-10T06:27:03.074Z,13.40
2018-06-10T06:29:32.414Z,14.00
2018-06-10T06:32:01.802Z,14.90
2018-06-10T06:34:31.223Z,13.80
2018-06-10T06:37:00.588Z,13.90
2018-06-10T06:39:29.840Z,17.43
2018-06-10T06:41:59.109Z,13.60
2018-06-10T06:44:28.406Z,14.60
2018-06-10T06:46:57.771Z,13.83
2018-06-10T06:52:29.831Z,15.50
2018-06-10T06:54:59.051Z,13.97
2018-06-10T06:57:28.325Z,13.93
2018-06-10T06:59:57.641Z,14.90
2018-06-10T07:02:27.039Z,13.23
2018-06-10T07:04:56.371Z,14.13
2018-06-10T07:07:25.642Z,12.63
2018-06-10T07:09:55.154Z,12.60
2018-06-10T07:12:24.544Z,12.90
2018-06-10T07:14:53.892Z,13.53
2018-06-10T07:17:23.232Z,15.83
2018-06-10T07:19:52.367Z,12.37
2018-06-10T07:22:21.619Z,11.53
2018-06-10T07:24:50.845Z,12.50
2018-06-10T07:27:20.144Z,12.77
2018-06-10T07:29:49.478Z,11.57
2018-06-10T07:32:18.747Z,11.03
2018-06-10T07:34:48.048Z,10.90
2018-06-10T07:37:17.255Z,11.60
2018-06-10T07:39:46.546Z,13.10
2018-06-10T07:42:15.849Z,11.77
2018-06-10T07:44:45.162Z,12.90
2018-06-10T07:47:14.433Z,13.20
2018-06-10T07:49:43.763Z,12.50
2018-06-10T07:52:13.039Z,12.43
2018-06-10T07:54:42.462Z,12.53
2018-06-10T07:57:11.729Z,12.10
2018-06-10T07:59:41.154Z,12.60
2018-06-10T08:02:10.443Z,14.20
2018-06-10T08:04:39.781Z,12.40
2018-06-10T08:07:09.042Z,11.60
2018-06-10T08:09:38.005Z,11.17
2018-06-10T08:12:07.227Z,12.50
2018-06-10T08:14:36.571Z,11.83
2018-06-10T08:17:05.846Z,11.60
2018-06-10T08:19:35.177Z,11.97
2018-06-10T08:22:06.730Z,10.30
2018-06-10T08:24:36.583Z,12.27
2018-06-10T08:27:06.759Z,11.70
2018-06-10T08:29:36.238Z,11.70
2018-06-10T08:32:06.979Z,11.43
2018-06-10T08:34:36.410Z,11.50
2018-06-10T08:37:05.635Z,10.53
2018-06-10T08:39:35.007Z,10.60
2018-06-10T08:42:04.243Z,10.43
2018-06-10T08:44:33.662Z,10.53
2018-06-10T08:47:02.890Z,10.43
2018-06-10T08:49:32.229Z,9.90
2018-06-10T08:52:02.571Z,10.70
2018-06-10T08:54:31.914Z,11.17
2018-06-10T08:57:01.372Z,12.23
2018-06-10T08:59:30.653Z,10.40
2018-06-10T09:01:59.955Z,10.60
2018-06-10T09:04:29.443Z,10.23
2018-06-10T09:06:58.574Z,9.63
2018-06-10T09:09:27.806Z,9.73
2018-06-10T09:11:56.995Z,9.07
2018-06-10T09:14:26.418Z,9.60
2018-06-10T09:16:55.774Z,10.47
2018-06-10T09:19:26.052Z,10.37
2018-06-10T09:21:55.322Z,9.17
2018-06-10T09:24:24.664Z,8.97
2018-06-10T09:26:54.043Z,8.57
2018-06-10T09:29:23.253Z,9.60
2018-06-10T09:31:52.547Z,9.80
2018-06-10T09:34:21.485Z,9.17
2018-06-10T09:36:50.704Z,9.10
2018-06-10T09:39:19.938Z,8.97
2018-06-10T09:41:49.194Z,9.57
2018-06-10T09:44:18.457Z,9.23
2018-06-10T09:46:47.706Z,8.37
2018-06-10T09:49:16.946Z,9.20
2018-06-10T09:51:46.195Z,8.93
2018-06-10T09:54:15.443Z,8.13
2018-06-10T09:56:44.698Z,8.97
2018-06-10T09:59:13.947Z,8.50
2018-06-10T10:01:43.214Z,9.20
2018-06-10T10:04:12.579Z,9.30
2018-06-10T10:06:41.812Z,10.23
2018-06-10T10:09:11.045Z,9.20
2018-06-10T10:11:40.305Z,9.97
2018-06-10T10:14:09.654Z,8.50
2018-06-10T10:16:38.921Z,8.50
2018-06-10T10:19:08.230Z,9.40
2018-06-10T10:21:37.532Z,8.80
2018-06-10T10:24:06.880Z,9.20
2018-06-10T10:26:36.254Z,8.90
2018-06-10T10:29:05.618Z,8.90
2018-06-10T10:31:34.575Z,9.63
2018-06-10T10:34:03.559Z,9.07
2018-06-10T10:36:32.534Z,9.87
2018-06-10T10:39:01.523Z,7.80
2018-06-10T10:41:30.508Z,8.80
2018-06-10T10:43:59.451Z,8.50
2018-06-10T10:46:28.410Z,8.40
2018-06-10T10:48:57.519Z,7.90
2018-06-10T10:51:26.545Z,8.50
2018-06-10T10:53:55.503Z,7.80
2018-06-10T10:56:24.504Z,8.17
2018-06-10T10:58:53.439Z,8.63
2018-06-10T11:01:22.460Z,7.90
2018-06-10T11:03:51.461Z,7.97
2018-06-10T11:06:20.631Z,8.03
2018-06-10T11:08:49.638Z,7.97
2018-06-10T11:11:18.630Z,8.60
2018-06-10T11:13:47.589Z,7.97
2018-06-10T11:16:16.583Z,7.30
2018-06-10T11:18:45.511Z,8.77
2018-06-10T11:21:14.530Z,8.37
2018-06-10T11:23:43.470Z,8.17
2018-06-10T11:26:12.450Z,8.40
2018-06-10T11:28:41.408Z,7.60
2018-06-10T11:31:10.417Z,7.47
2018-06-10T11:33:39.356Z,7.80
2018-06-10T11:36:08.523Z,8.60
2018-06-10T11:38:37.756Z,8.77
2018-06-10T11:41:06.721Z,8.70
2018-06-10T11:43:36.265Z,9.77
2018-06-10T11:46:05.232Z,9.00
2018-06-10T11:48:34.230Z,9.33
2018-06-10T11:51:03.213Z,8.40
2018-06-10T11:53:32.147Z,10.20
2018-06-10T11:56:01.146Z,9.53
2018-06-10T11:58:30.074Z,9.37
2018-06-10T12:00:59.076Z,9.27
2018-06-10T12:03:28.046Z,8.60
2018-06-10T12:05:57.055Z,8.20
2018-06-10T12:08:26.015Z,7.93
2018-06-10T12:10:55.120Z,10.57
2018-06-10T12:13:24.056Z,8.57
2018-06-10T12:15:53.062Z,7.80
2018-06-10T12:18:22.018Z,8.77
2018-06-10T12:20:51.049Z,8.80
2018-06-10T12:23:20.005Z,7.87
2018-06-10T12:25:49.062Z,8.83
2018-06-10T12:28:18.040Z,8.47
2018-06-10T12:30:47.079Z,8.73
2018-06-10T12:33:16.069Z,8.40
2018-06-10T12:35:45.082Z,7.20
2018-06-10T12:38:14.108Z,7.47
2018-06-10T12:40:43.131Z,7.53
2018-06-10T12:43:12.144Z,7.67
2018-06-10T12:45:42.345Z,9.43
2018-06-10T12:48:11.275Z,8.10
2018-06-10T12:50:47.063Z,7.93
2018-06-10T12:53:16.055Z,8.80
2018-06-10T12:55:45.063Z,9.03
2018-06-10T12:58:14.042Z,8.90
2018-06-10T13:00:43.059Z,8.57
2018-06-10T13:03:12.043Z,7.47
2018-06-10T13:05:41.058Z,8.80
2018-06-10T13:08:10.015Z,7.73
2018-06-10T13:10:39.005Z,8.00
2018-06-10T13:13:07.958Z,8.70
2018-06-10T13:15:36.952Z,8.00
2018-06-10T13:18:06.125Z,8.70
2018-06-10T13:20:35.112Z,8.20
2018-06-10T13:23:04.048Z,8.80
2018-06-10T13:25:33.114Z,10.60
2018-06-10T13:28:02.152Z,9.30
2018-06-10T13:30:31.102Z,9.73
2018-06-10T13:33:00.114Z,10.03
2018-06-10T13:35:29.128Z,11.13
2018-06-10T13:37:58.111Z,10.50
2018-06-10T13:40:27.113Z,9.60
2018-06-10T13:42:56.103Z,10.10
2018-06-10T13:45:25.051Z,9.33
2018-06-10T13:47:54.080Z,8.43
2018-06-10T13:50:23.080Z,8.57
2018-06-10T13:52:52.084Z,8.50
2018-06-10T13:55:21.058Z,9.00
2018-06-10T13:57:50.047Z,7.53
2018-06-10T14:00:19.006Z,7.73
2018-06-10T14:02:48.008Z,8.07
2018-06-10T14:05:16.959Z,8.00
2018-06-10T14:07:45.996Z,7.90
2018-06-10T14:10:14.954Z,8.80
2018-06-10T14:12:43.952Z,8.20
2018-06-10T14:15:13.024Z,9.30
2018-06-10T14:17:41.968Z,8.30
2018-06-10T14:20:10.918Z,7.80
2018-06-10T14:22:39.905Z,8.00
2018-06-10T14:25:08.851Z,8.00
2018-06-10T14:27:37.852Z,9.33
2018-06-10T14:30:07.630Z,9.00
2018-06-10T14:32:36.658Z,8.73
2018-06-10T14:35:05.639Z,8.03
2018-06-10T14:37:34.656Z,8.50
2018-06-10T14:40:03.666Z,8.40
2018-06-10T14:42:32.644Z,8.83
2018-06-10T14:45:01.591Z,9.90
2018-06-10T14:47:30.583Z,8.10
2018-06-10T14:49:59.523Z,8.70
2018-06-10T14:52:28.508Z,7.50
2018-06-10T14:54:57.512Z,8.40
2018-06-10T14:57:26.481Z,8.07
2018-06-10T14:59:55.454Z,7.33
2018-06-10T15:02:24.507Z,6.53
2018-06-10T15:04:53.445Z,6.07
2018-06-10T15:07:22.402Z,5.30
2018-06-10T15:09:51.342Z,6.30
2018-06-10T15:12:20.390Z,5.10
2018-06-10T15:14:49.323Z,5.00
2018-06-10T15:17:18.301Z,5.60
2018-06-10T15:19:47.247Z,5.50
2018-06-10T15:22:16.255Z,5.07
2018-06-10T15:24:45.191Z,5.43
2018-06-10T15:27:14.247Z,4.70
2018-06-10T15:29:43.257Z,4.70
2018-06-10T15:32:12.286Z,5.17
2018-06-10T15:34:41.242Z,4.67
2018-06-10T15:37:10.225Z,5.40
2018-06-10T15:39:39.159Z,5.50
2018-06-10T15:42:08.170Z,5.90
2018-06-10T15:44:37.115Z,5.73
2018-06-10T15:47:06.166Z,6.47
2018-06-10T15:49:35.120Z,6.80
2018-06-10T15:52:04.107Z,5.40
2018-06-10T15:54:33.033Z,5.77
2018-06-10T15:57:02.056Z,5.97
2018-06-10T15:59:30.997Z,6.50
2018-06-10T16:01:59.978Z,5.60
2018-06-10T16:04:28.910Z,6.20
2018-06-10T16:06:57.876Z,6.50
2018-06-10T16:09:26.823Z,7.77
2018-06-10T16:11:55.828Z,6.60
2018-06-10T16:14:24.798Z,6.93
2018-06-10T16:16:53.794Z,5.90
2018-06-10T16:19:22.728Z,7.03
2018-06-10T16:21:51.738Z,6.43
2018-06-10T16:24:20.732Z,6.70
2018-06-10T16:26:49.699Z,6.97
2018-06-10T16:29:18.698Z,6.93
2018-06-10T16:31:47.633Z,6.50
2018-06-10T16:34:16.595Z,6.63
2018-06-10T16:36:45.610Z,6.57
2018-06-10T16:39:14.708Z,7.17
2018-06-10T16:41:43.640Z,7.13
2018-06-10T16:44:12.633Z,6.77
2018-06-10T16:46:41.552Z,7.27
2018-06-10T16:49:10.556Z,9.40
2018-06-10T16:51:39.501Z,6.90
2018-06-10T16:54:08.529Z,7.40
2018-06-10T16:56:37.454Z,7.73
2018-06-10T16:59:06.440Z,6.83
2018-06-10T17:01:35.385Z,6.67
2018-06-10T17:04:04.403Z,6.50
2018-06-10T17:06:33.358Z,7.63
2018-06-10T17:09:02.326Z,7.70
2018-06-10T17:11:31.258Z,7.33
2018-06-10T17:14:00.220Z,7.60
2018-06-10T17:16:29.249Z,9.07
2018-06-10T17:18:58.232Z,7.40
2018-06-10T17:21:27.188Z,8.00
2018-06-10T17:23:56.198Z,7.50
2018-06-10T17:26:25.167Z,8.57
2018-06-10T17:28:54.134Z,8.53
2018-06-10T17:31:23.070Z,9.20
2018-06-10T17:33:52.070Z,11.53
2018-06-10T17:36:21.090Z,10.70
2018-06-10T17:38:50.079Z,12.40
2018-06-10T17:41:19.098Z,12.77
2018-06-10T17:43:48.097Z,12.93
2018-06-10T17:46:17.030Z,13.77
2018-06-10T17:48:46.026Z,13.50
2018-06-10T17:51:14.946Z,14.73
2018-06-10T17:53:43.990Z,14.13
2018-06-10T17:56:12.898Z,15.33
2018-06-10T17:58:41.888Z,14.83
2018-06-10T18:01:10.972Z,15.73
2018-06-10T18:03:40.007Z,16.00
2018-06-10T18:06:08.931Z,18.47
2018-06-10T18:08:37.912Z,18.83
2018-06-10T18:11:06.942Z,17.80
2018-06-10T18:13:35.967Z,19.40
2018-06-10T18:16:04.958Z,17.60
2018-06-10T18:18:33.951Z,18.73
2018-06-10T18:21:03.018Z,18.17
2018-06-10T18:23:31.974Z,18.90
2018-06-10T18:26:00.919Z,19.80
2018-06-10T18:28:29.952Z,20.10
2018-06-10T18:30:59.279Z,19.63
2018-06-10T18:33:28.489Z,19.10
2018-06-10T18:35:57.448Z,20.70
2018-06-10T18:38:26.461Z,21.60
2018-06-10T18:40:55.426Z,20.37
2018-06-10T18:43:24.462Z,20.10
2018-06-10T18:45:53.493Z,20.57
2018-06-10T18:48:22.652Z,22.00
2018-06-10T18:50:51.647Z,21.07
2018-06-10T18:53:21.436Z,21.30
2018-06-10T18:55:50.372Z,20.90
2018-06-10T18:58:19.373Z,22.90
2018-06-10T19:00:48.446Z,22.77
2018-06-10T19:03:17.446Z,21.07
2018-06-10T19:05:46.506Z,22.13
2018-06-10T19:08:15.605Z,20.70
2018-06-10T19:10:44.574Z,20.13
2018-06-10T19:13:13.558Z,20.07
2018-06-10T19:15:42.503Z,20.57
2018-06-10T19:18:11.533Z,18.83
2018-06-10T19:20:40.484Z,18.73
2018-06-10T19:23:09.431Z,20.90
2018-06-10T19:25:38.422Z,20.10
2018-06-10T19:28:07.444Z,19.67
2018-06-10T19:30:36.456Z,20.00
2018-06-10T19:33:05.453Z,20.23
2018-06-10T19:35:34.459Z,19.97
2018-06-10T19:38:03.400Z,20.63
2018-06-10T19:40:32.395Z,20.23
2018-06-10T19:43:01.322Z,22.83
2018-06-10T19:45:30.311Z,21.33
2018-06-10T19:47:59.242Z,19.33
2018-06-10T19:50:28.222Z,19.83
2018-06-10T19:52:57.166Z,22.13
2018-06-10T19:55:26.151Z,22.80
2018-06-10T19:57:55.162Z,20.00
2018-06-10T20:00:24.146Z,22.67
2018-06-10T20:02:53.134Z,22.57
2018-06-10T20:05:22.111Z,22.10
2018-06-10T20:07:51.078Z,22.07
2018-06-10T20:10:20.146Z,21.47
2018-06-10T20:12:49.101Z,20.80
2018-06-10T20:15:18.159Z,22.10
2018-06-10T20:17:47.115Z,22.07
2018-06-10T20:20:16.111Z,22.83
2018-06-10T20:22:45.085Z,22.20
2018-06-10T20:25:14.075Z,22.40
2018-06-10T20:27:43.002Z,22.87
2018-06-10T20:30:12.108Z,22.13
2018-06-10T20:32:41.042Z,23.40
2018-06-10T20:35:10.014Z,23.70
2018-06-10T20:37:39.016Z,23.47
2018-06-10T20:40:08.007Z,23.80
2018-06-10T20:42:36.966Z,24.33
2018-06-10T20:45:06.066Z,23.27
2018-06-10T20:47:35.035Z,22.57
2018-06-10T20:50:04.047Z,25.47
2018-06-10T20:52:32.986Z,24.60
2018-06-10T20:55:01.947Z,26.37
2018-06-10T20:57:30.980Z,25.70
2018-06-10T20:59:59.914Z,27.77
2018-06-10T21:02:29.035Z,26.90
2018-06-10T21:04:57.972Z,29.10
2018-06-10T21:07:27.088Z,27.37
2018-06-10T21:09:56.070Z,26.17
2018-06-10T21:12:25.045Z,27.17
2018-06-10T21:14:53.999Z,25.27
2018-06-10T21:17:22.994Z,28.30
2018-06-10T21:19:51.945Z,27.90
2018-06-10T21:22:20.990Z,28.57
2018-06-10T21:24:49.952Z,26.57
2018-06-10T21:27:18.938Z,28.10
2018-06-10T21:29:48.040Z,28.93
2018-06-10T21:32:17.075Z,29.53
2018-06-10T21:34:46.039Z,30.17
2018-06-10T21:37:15.017Z,29.00
2018-06-10T21:39:43.968Z,28.60
2018-06-10T21:42:12.947Z,29.53
2018-06-10T21:44:41.882Z,30.63
2018-06-10T21:47:10.928Z,27.20
2018-06-10T21:49:39.864Z,27.53
2018-06-10T21:52:08.854Z,28.53
2018-06-10T21:54:37.790Z,26.10
2018-06-10T21:57:06.773Z,27.63
2018-06-10T21:59:35.720Z,28.90
2018-06-10T22:02:04.685Z,30.13
2018-06-10T22:04:33.703Z,31.47
2018-06-10T22:07:02.684Z,32.00
2018-06-10T22:09:31.650Z,29.53
2018-06-10T22:12:00.662Z,31.67
2018-06-10T22:14:29.593Z,31.93
2018-06-10T22:16:58.583Z,31.90
2018-06-10T22:19:27.530Z,32.60
2018-06-10T22:21:56.518Z,33.63
2018-06-10T22:24:25.484Z,32.10
2018-06-10T22:26:54.453Z,33.53
2018-06-10T22:29:23.407Z,32.97
2018-06-10T22:31:52.494Z,29.73
2018-06-10T22:34:21.426Z,28.87
2018-06-10T22:36:50.398Z,29.70
2018-06-10T22:39:19.417Z,30.67
2018-06-10T22:41:48.401Z,31.47
2018-06-10T22:44:17.403Z,31.97
2018-06-10T22:46:46.397Z,32.20
2018-06-10T22:49:15.386Z,35.10
2018-06-10T22:51:44.341Z,32.73
2018-06-10T22:54:50.778Z,33.70
2018-06-10T22:57:19.762Z,39.83
2018-06-10T22:59:48.734Z,34.80
2018-06-10T23:02:17.686Z,32.97
2018-06-10T23:04:46.662Z,34.60
2018-06-10T23:07:15.658Z,32.50
2018-06-10T23:09:44.675Z,33.70
2018-06-10T23:12:13.644Z,33.53
2018-06-10T23:14:42.633Z,33.23
2018-06-10T23:17:16.955Z,35.00
2018-06-10T23:19:45.930Z,32.53
2018-06-10T23:22:14.855Z,33.07
2018-06-10T23:24:43.811Z,32.93
2018-06-10T23:27:12.764Z,31.33
2018-06-10T23:29:41.752Z,30.73
2018-06-10T23:32:10.711Z,33.20
2018-06-10T23:34:39.753Z,32.60
2018-06-10T23:37:08.693Z,31.23
2018-06-10T23:39:37.754Z,33.37
2018-06-10T23:42:06.693Z,33.23
2018-06-10T23:44:35.674Z,31.53
2018-06-10T23:47:04.662Z,32.10
2018-06-10T23:49:33.640Z,32.50
2018-06-10T23:52:02.590Z,29.70
2018-06-10T23:54:31.598Z,31.27
2018-06-10T23:57:00.576Z,34.63
2018-06-10T23:59:29.550Z,33.03
